createdAt,value
2024-01-16T00:00:39.734Z,82.00
2024-01-16T00:03:08.918Z,81.80
2024-01-16T00:05:38.150Z,82.50
2024-01-16T00:08:08.091Z,81.90
2024-01-16T00:10:37.309Z,81.50
2024-01-16T00:13:06.632Z,81.30
2024-01-16T00:15:35.742Z,82.10
2024-01-16T00:18:05.058Z,81.60
2024-01-16T00:20:34.280Z,81.80
2024-01-16T00:23:03.743Z,81.70
2024-01-16T00:25:32.841Z,81.20
2024-01-16T00:28:02.428Z,81.30
2024-01-16T00:30:32.617Z,81.60
2024-01-16T00:33:02.043Z,81.30
2024-01-16T00:35:31.290Z,81.80
2024-01-16T00:38:00.572Z,81.00
2024-01-16T00:40:29.690Z,82.10
2024-01-16T00:42:59.140Z,81.90
2024-01-16T00:45:28.390Z,82.20
2024-01-16T00:47:58.186Z,82.80
2024-01-16T00:50:27.564Z,82.80
2024-01-16T00:52:56.704Z,82.60
2024-01-16T00:55:25.776Z,81.80
2024-01-16T00:57:56.205Z,81.10
2024-01-16T01:00:25.339Z,80.90
2024-01-16T01:02:54.448Z,80.90
2024-01-16T01:05:24.848Z,81.30
2024-01-16T01:07:53.987Z,81.40
2024-01-16T01:10:23.214Z,81.40
2024-01-16T01:12:56.127Z,81.50
2024-01-16T01:15:25.332Z,81.40
2024-01-16T01:17:55.113Z,81.00
2024-01-16T01:20:24.408Z,80.40
2024-01-16T01:22:53.486Z,80.50
2024-01-16T01:25:22.597Z,80.60
2024-01-16T01:27:51.703Z,79.90
2024-01-16T01:30:20.996Z,79.80
2024-01-16T01:32:50.277Z,79.00
2024-01-16T01:35:22.099Z,78.30
2024-01-16T01:37:51.464Z,79.40
2024-01-16T01:40:23.315Z,78.50
2024-01-16T01:42:52.918Z,78.00
2024-01-16T01:45:24.408Z,77.70
2024-01-16T01:47:54.132Z,77.80
2024-01-16T01:50:23.482Z,77.40
2024-01-16T01:52:52.689Z,77.00
2024-01-16T01:55:21.997Z,76.40
2024-01-16T01:57:51.283Z,76.10
2024-01-16T02:00:21.191Z,75.70
2024-01-16T02:02:50.446Z,75.40
2024-01-16T02:05:20.580Z,75.10
2024-01-16T02:07:49.924Z,75.00
2024-01-16T02:10:19.122Z,75.00
2024-01-16T02:12:48.279Z,74.60
2024-01-16T02:15:17.529Z,74.40
2024-01-16T02:17:46.854Z,74.20
2024-01-16T02:20:16.281Z,73.90
2024-01-16T02:22:51.314Z,73.40
2024-01-16T02:25:22.814Z,73.20
2024-01-16T02:27:51.962Z,72.50
2024-01-16T02:30:21.302Z,72.50
2024-01-16T02:32:50.571Z,72.40
2024-01-16T02:35:20.860Z,72.30
2024-01-16T02:37:50.037Z,71.90
2024-01-16T02:40:19.479Z,71.70
2024-01-16T02:42:49.029Z,71.10
2024-01-16T02:45:18.269Z,70.60
2024-01-16T02:47:47.794Z,70.60
2024-01-16T02:50:17.077Z,70.70
2024-01-16T02:52:46.184Z,69.90
2024-01-16T02:55:15.431Z,69.90
2024-01-16T02:57:44.747Z,70.10
2024-01-16T03:00:14.420Z,69.80
2024-01-16T03:02:43.825Z,70.00
2024-01-16T03:05:17.306Z,69.60
2024-01-16T03:07:46.478Z,69.70
2024-01-16T03:10:15.709Z,69.20
2024-01-16T03:12:45.043Z,69.20
2024-01-16T03:15:14.264Z,69.30
2024-01-16T03:17:43.606Z,69.10
2024-01-16T03:20:14.063Z,68.50
2024-01-16T03:22:43.269Z,68.50
2024-01-16T03:25:14.486Z,68.90
2024-01-16T03:27:43.595Z,69.10
2024-01-16T03:30:21.679Z,69.30
2024-01-16T03:32:51.171Z,68.80
2024-01-16T03:35:20.458Z,68.40
2024-01-16T03:37:49.623Z,68.20
2024-01-16T03:40:18.829Z,68.20
2024-01-16T03:42:47.936Z,67.50
2024-01-16T03:45:18.107Z,67.50
2024-01-16T03:47:47.569Z,66.90
2024-01-16T03:50:17.377Z,66.40
2024-01-16T03:52:46.527Z,66.40
2024-01-16T03:55:15.703Z,66.50
2024-01-16T03:57:44.811Z,65.60
2024-01-16T04:00:16.819Z,65.60
2024-01-16T04:02:45.915Z,66.00
2024-01-16T04:05:15.093Z,65.20
2024-01-16T04:07:44.238Z,65.30
2024-01-16T04:10:13.413Z,65.10
2024-01-16T04:12:42.563Z,64.80
2024-01-16T04:15:12.126Z,64.30
2024-01-16T04:17:41.265Z,64.60
2024-01-16T04:20:11.547Z,64.30
2024-01-16T04:22:40.614Z,63.90
2024-01-16T04:25:12.709Z,63.80
2024-01-16T04:27:41.997Z,63.70
2024-01-16T04:30:11.756Z,63.60
2024-01-16T04:32:41.038Z,62.20
2024-01-16T04:35:11.056Z,62.60
2024-01-16T04:37:43.080Z,61.70
2024-01-16T04:40:12.644Z,60.90
2024-01-16T04:42:41.857Z,62.10
2024-01-16T04:45:11.665Z,63.10
2024-01-16T04:47:40.939Z,62.00
2024-01-16T04:50:10.605Z,61.30
2024-01-16T04:52:39.915Z,61.00
2024-01-16T04:55:09.829Z,61.00
2024-01-16T04:57:39.025Z,61.70
2024-01-16T05:00:09.296Z,61.40
2024-01-16T05:02:38.719Z,60.70
2024-01-16T05:05:44.520Z,61.00
2024-01-16T05:08:16.662Z,59.40
2024-01-16T05:10:46.884Z,60.70
2024-01-16T05:13:18.785Z,60.80
2024-01-16T05:15:48.037Z,60.40
2024-01-16T05:18:17.362Z,60.20
2024-01-16T05:24:15.259Z,59.40
2024-01-16T05:26:44.489Z,60.00
2024-01-16T05:29:14.320Z,59.70
2024-01-16T05:31:46.481Z,58.50
2024-01-16T05:34:15.667Z,58.90
2024-01-16T05:36:46.355Z,59.90
2024-01-16T05:39:15.499Z,59.70
2024-01-16T05:41:47.318Z,59.40
2024-01-16T05:44:16.609Z,59.20
2024-01-16T05:46:46.659Z,59.10
2024-01-16T05:49:15.899Z,59.10
2024-01-16T05:51:47.451Z,58.80
2024-01-16T05:54:16.532Z,59.00
2024-01-16T05:56:45.730Z,59.00
2024-01-16T05:59:14.966Z,58.90
2024-01-16T06:01:44.127Z,58.10
2024-01-16T06:04:14.813Z,58.50
2024-01-16T06:06:47.661Z,57.60
2024-01-16T06:09:16.970Z,57.80
2024-01-16T06:11:46.163Z,58.30
2024-01-16T06:14:15.441Z,58.10
2024-01-16T06:16:44.650Z,58.10
2024-01-16T06:19:13.838Z,57.60
2024-01-16T06:21:43.025Z,57.80
2024-01-16T06:24:13.822Z,58.30
2024-01-16T06:26:42.985Z,57.20
2024-01-16T06:29:21.145Z,57.70
2024-01-16T06:31:54.156Z,57.70
2024-01-16T06:34:23.339Z,57.10
2024-01-16T06:36:52.617Z,57.80
2024-01-16T06:39:21.831Z,56.00
2024-01-16T06:41:51.084Z,56.60
2024-01-16T06:44:21.230Z,57.40
2024-01-16T06:46:50.444Z,57.00
2024-01-16T06:49:19.706Z,56.50
2024-01-16T06:51:48.955Z,55.60
2024-01-16T06:54:18.175Z,56.10
2024-01-16T06:56:48.291Z,56.60
2024-01-16T06:59:21.826Z,56.40
2024-01-16T07:01:51.462Z,56.50
2024-01-16T07:04:20.607Z,56.40
2024-01-16T07:06:50.017Z,56.40
2024-01-16T07:09:20.817Z,56.60
2024-01-16T07:11:50.652Z,56.20
2024-01-16T07:14:20.033Z,55.60
2024-01-16T07:16:49.488Z,55.30
2024-01-16T07:19:18.724Z,55.40
2024-01-16T07:21:47.920Z,55.40
2024-01-16T07:24:18.652Z,55.90
2024-01-16T07:26:47.899Z,55.50
2024-01-16T07:29:17.051Z,55.00
2024-01-16T07:31:46.124Z,55.40
2024-01-16T07:34:19.572Z,55.50
2024-01-16T07:36:48.991Z,54.80
2024-01-16T07:39:18.092Z,55.20
2024-01-16T07:41:47.278Z,55.60
2024-01-16T07:44:16.487Z,55.80
2024-01-16T07:46:45.675Z,55.20
2024-01-16T07:49:14.900Z,55.90
2024-01-16T07:51:44.233Z,55.50
2024-01-16T07:54:15.496Z,55.70
2024-01-16T07:56:45.132Z,55.70
2024-01-16T07:59:14.326Z,55.20
2024-01-16T08:01:43.471Z,55.50
2024-01-16T08:04:12.830Z,55.60
2024-01-16T08:06:42.455Z,55.20
2024-01-16T08:09:14.405Z,55.30
2024-01-16T08:11:43.648Z,55.40
2024-01-16T08:14:13.309Z,55.70
2024-01-16T08:16:42.563Z,54.90
2024-01-16T08:19:11.817Z,55.00
2024-01-16T08:21:41.130Z,54.80
2024-01-16T08:24:10.312Z,54.90
2024-01-16T08:26:39.476Z,54.80
2024-01-16T08:29:08.692Z,54.60
2024-01-16T08:31:37.862Z,54.80
2024-01-16T08:34:07.076Z,54.80
2024-01-16T08:36:36.258Z,54.70
2024-01-16T08:39:07.769Z,53.80
2024-01-16T08:41:36.965Z,54.30
2024-01-16T08:44:06.529Z,55.10
2024-01-16T08:46:35.680Z,55.40
2024-01-16T08:49:04.859Z,54.80
2024-01-16T08:51:33.972Z,55.20
2024-01-16T08:54:03.151Z,55.00
2024-01-16T08:56:32.277Z,54.30
2024-01-16T08:59:56.777Z,54.40
2024-01-16T09:02:26.565Z,54.30
2024-01-16T09:04:55.932Z,55.10
2024-01-16T09:07:25.221Z,55.00
2024-01-16T09:09:54.383Z,54.20
2024-01-16T09:12:23.585Z,54.60
2024-01-16T09:14:52.755Z,54.10
2024-01-16T09:17:23.121Z,54.70
2024-01-16T09:19:52.290Z,55.00
2024-01-16T09:22:21.517Z,55.20
2024-01-16T09:24:50.663Z,54.80
2024-01-16T09:27:19.860Z,55.10
2024-01-16T09:29:49.154Z,54.90
2024-01-16T09:32:18.412Z,54.80
2024-01-16T09:34:47.700Z,54.90
2024-01-16T09:37:17.048Z,55.10
2024-01-16T09:39:46.734Z,55.10
2024-01-16T09:42:15.945Z,55.20
2024-01-16T09:44:45.087Z,54.90
2024-01-16T09:47:14.760Z,55.10
2024-01-16T09:49:45.287Z,54.90
2024-01-16T09:52:17.842Z,55.00
2024-01-16T09:54:48.864Z,55.10
2024-01-16T09:57:21.045Z,55.10
2024-01-16T09:59:51.661Z,55.10
2024-01-16T10:02:23.522Z,54.90
2024-01-16T10:04:55.714Z,55.10
2024-01-16T10:07:30.119Z,55.20
2024-01-16T10:10:02.523Z,55.30
2024-01-16T10:12:32.156Z,55.40
2024-01-16T10:15:02.386Z,55.40
2024-01-16T10:17:46.997Z,55.50
2024-01-16T10:20:16.245Z,55.20
2024-01-16T10:22:56.440Z,55.60
2024-01-16T10:25:25.591Z,55.50
2024-01-16T10:28:07.475Z,55.50
2024-01-16T10:30:36.821Z,55.60
2024-01-16T10:33:19.413Z,55.70
2024-01-16T10:35:48.738Z,55.50
2024-01-16T10:38:27.816Z,55.70
2024-01-16T10:41:20.572Z,55.80
2024-01-16T10:43:49.765Z,55.60
2024-01-16T10:46:21.990Z,55.90
2024-01-16T10:49:06.470Z,56.00
2024-01-16T10:51:35.868Z,55.90
2024-01-16T10:54:10.628Z,56.10
2024-01-16T10:56:40.387Z,56.20
2024-01-16T10:59:28.557Z,56.30
2024-01-16T11:02:02.837Z,56.30
2024-01-16T11:04:32.875Z,56.50
2024-01-16T11:07:03.290Z,56.50
2024-01-16T11:09:33.221Z,56.60
2024-01-16T11:12:02.553Z,56.70
2024-01-16T11:14:33.515Z,56.80
2024-01-16T11:17:04.219Z,57.00
2024-01-16T11:19:48.326Z,56.90
2024-01-16T11:22:25.150Z,57.10
2024-01-16T11:25:18.051Z,57.10
2024-01-16T11:27:53.779Z,57.20
2024-01-16T11:30:35.131Z,57.30
2024-01-16T11:33:04.365Z,57.40
2024-01-16T11:35:42.091Z,57.50
2024-01-16T11:38:21.579Z,57.50
2024-01-16T11:40:50.918Z,57.60
2024-01-16T11:43:35.436Z,57.70
2024-01-16T11:46:05.940Z,57.80
2024-01-16T11:48:35.363Z,57.90
2024-01-16T11:51:27.720Z,58.00
2024-01-16T11:53:56.808Z,58.30
2024-01-16T11:56:46.727Z,58.20
2024-01-16T11:59:32.387Z,58.40
2024-01-16T12:02:06.000Z,58.50
2024-01-16T12:04:34.754Z,58.60
2024-01-16T12:07:04.354Z,59.70
2024-01-16T12:09:33.600Z,58.90
2024-01-16T12:12:05.021Z,59.00
2024-01-16T12:14:34.590Z,59.00
2024-01-16T12:17:16.304Z,59.20
2024-01-16T12:19:45.877Z,59.40
2024-01-16T12:22:23.753Z,59.40
2024-01-16T12:24:58.122Z,59.60
2024-01-16T12:27:27.381Z,59.60
2024-01-16T12:30:10.964Z,59.80
2024-01-16T12:32:40.170Z,60.10
2024-01-16T12:35:10.146Z,60.20
2024-01-16T12:37:39.293Z,60.20
2024-01-16T12:40:09.125Z,60.30
2024-01-16T12:42:38.419Z,60.40
2024-01-16T12:45:12.835Z,60.60
2024-01-16T12:47:42.243Z,60.80
2024-01-16T12:50:11.732Z,60.90
2024-01-16T12:52:41.106Z,61.00
2024-01-16T12:55:10.778Z,61.20
2024-01-16T12:57:39.994Z,61.30
2024-01-16T13:00:27.899Z,61.60
2024-01-16T13:03:01.088Z,62.10
2024-01-16T13:05:30.489Z,61.70
2024-01-16T13:08:06.250Z,62.20
2024-01-16T13:10:35.450Z,62.20
2024-01-16T13:13:21.974Z,62.20
2024-01-16T13:15:52.097Z,63.10
2024-01-16T13:18:25.345Z,63.00
2024-01-16T13:20:56.467Z,63.30
2024-01-16T13:23:35.655Z,63.60
2024-01-16T13:26:06.943Z,63.80
2024-01-16T13:28:36.354Z,64.00
2024-01-16T13:31:06.192Z,63.80
2024-01-16T13:33:35.486Z,64.00
2024-01-16T13:36:07.076Z,63.90
2024-01-16T13:38:36.291Z,64.00
2024-01-16T13:41:05.538Z,64.00
2024-01-16T13:43:34.671Z,64.40
2024-01-16T13:46:05.435Z,64.30
2024-01-16T13:48:34.741Z,64.40
2024-01-16T13:51:06.504Z,64.50
2024-01-16T13:53:37.129Z,64.60
2024-01-16T13:56:06.619Z,65.50
2024-01-16T13:58:37.402Z,65.90
2024-01-16T14:01:06.763Z,66.10
2024-01-16T14:03:35.955Z,66.40
2024-01-16T14:06:06.634Z,66.90
2024-01-16T14:08:36.394Z,67.20
2024-01-16T14:11:05.650Z,67.80
2024-01-16T14:13:34.941Z,68.10
2024-01-16T14:16:04.128Z,68.90
2024-01-16T14:18:33.820Z,68.50
2024-01-16T14:21:03.100Z,68.90
2024-01-16T14:23:32.320Z,68.70
2024-01-16T14:26:02.622Z,68.50
2024-01-16T14:28:32.003Z,67.80
2024-01-16T14:31:01.398Z,67.50
2024-01-16T14:33:30.869Z,67.60
2024-01-16T14:36:02.630Z,67.40
2024-01-16T14:38:32.953Z,67.40
2024-01-16T14:41:02.156Z,67.30
2024-01-16T14:43:31.607Z,67.20
2024-01-16T14:46:00.729Z,67.00
2024-01-16T14:48:29.963Z,66.70
2024-01-16T14:50:59.517Z,66.50
2024-01-16T14:53:28.693Z,66.20
2024-01-16T14:56:01.694Z,65.90
2024-01-16T14:58:30.899Z,65.70
2024-01-16T15:01:00.787Z,65.50
2024-01-16T15:03:30.173Z,65.20
2024-01-16T15:06:15.165Z,65.00
2024-01-16T15:08:45.442Z,65.00
2024-01-16T15:11:14.700Z,64.80
2024-01-16T15:13:43.942Z,64.60
2024-01-16T15:16:13.382Z,64.50
2024-01-16T15:18:42.774Z,64.30
2024-01-16T15:21:12.946Z,64.30
2024-01-16T15:23:42.211Z,64.10
2024-01-16T15:26:11.493Z,64.00
2024-01-16T15:28:44.497Z,64.00
2024-01-16T15:31:15.694Z,64.10
2024-01-16T15:33:45.270Z,64.20
2024-01-16T15:36:14.505Z,64.10
2024-01-16T15:38:43.670Z,64.90
2024-01-16T15:41:12.786Z,64.20
2024-01-16T15:43:42.275Z,64.10
2024-01-16T15:46:11.418Z,64.30
2024-01-16T15:48:41.173Z,64.40
2024-01-16T15:51:11.239Z,64.30
2024-01-16T15:53:40.651Z,64.30
2024-01-16T15:56:09.850Z,64.50
2024-01-16T15:58:39.006Z,64.50
2024-01-16T16:01:08.296Z,65.20
2024-01-16T16:03:37.481Z,64.50
2024-01-16T16:06:07.357Z,64.40
2024-01-16T16:08:37.001Z,64.50
2024-01-16T16:11:06.229Z,64.50
2024-01-16T16:13:35.355Z,64.40
2024-01-16T16:16:04.646Z,64.50
2024-01-16T16:18:39.093Z,64.60
2024-01-16T16:21:08.382Z,65.00
2024-01-16T16:23:37.638Z,64.70
2024-01-16T16:26:07.770Z,64.70
2024-01-16T16:28:36.930Z,64.70
2024-01-16T16:31:06.340Z,64.90
2024-01-16T16:33:35.926Z,65.00
2024-01-16T16:36:06.886Z,65.10
2024-01-16T16:38:36.152Z,65.30
2024-01-16T16:41:05.315Z,65.10
2024-01-16T16:43:34.461Z,65.20
2024-01-16T16:46:03.562Z,65.10
2024-01-16T16:48:32.859Z,65.00
2024-01-16T16:51:02.242Z,65.20
2024-01-16T16:53:39.023Z,65.20
2024-01-16T16:56:16.185Z,65.10
2024-01-16T16:58:49.734Z,65.20
2024-01-16T17:01:20.306Z,65.40
2024-01-16T17:03:54.415Z,65.50
2024-01-16T17:06:23.740Z,65.40
2024-01-16T17:08:52.948Z,65.90
2024-01-16T17:11:22.169Z,65.70
2024-01-16T17:13:51.357Z,65.70
2024-01-16T17:16:25.263Z,65.80
2024-01-16T17:18:54.517Z,66.00
2024-01-16T17:21:24.693Z,66.10
2024-01-16T17:23:53.942Z,66.00
2024-01-16T17:26:23.503Z,66.10
2024-01-16T17:28:52.587Z,66.30
2024-01-16T17:31:21.726Z,66.00
2024-01-16T17:33:51.141Z,66.50
2024-01-16T17:36:22.511Z,66.40
2024-01-16T17:38:58.012Z,66.40
2024-01-16T17:41:28.351Z,66.60
2024-01-16T17:43:58.472Z,66.60
2024-01-16T17:46:27.590Z,66.30
2024-01-16T17:48:57.365Z,66.50
2024-01-16T17:51:27.750Z,66.70
2024-01-16T17:53:58.178Z,67.00
2024-01-16T17:56:28.021Z,66.60
2024-01-16T17:58:57.306Z,66.80
2024-01-16T18:01:26.544Z,66.90
2024-01-16T18:03:59.272Z,67.10
2024-01-16T18:06:28.955Z,66.90
2024-01-16T18:09:00.628Z,67.10
2024-01-16T18:11:29.790Z,67.10
2024-01-16T18:13:59.069Z,67.20
2024-01-16T18:16:28.835Z,67.40
2024-01-16T18:18:58.160Z,67.40
2024-01-16T18:21:27.431Z,67.40
2024-01-16T18:23:56.517Z,67.70
2024-01-16T18:26:25.774Z,67.60
2024-01-16T18:28:56.611Z,67.80
2024-01-16T18:31:25.680Z,67.80
2024-01-16T18:33:54.906Z,67.80
2024-01-16T18:36:25.005Z,67.90
2024-01-16T18:38:54.178Z,68.10
2024-01-16T18:41:24.161Z,68.20
2024-01-16T18:43:54.744Z,69.00
2024-01-16T18:46:25.790Z,68.90
2024-01-16T18:48:55.441Z,68.40
2024-01-16T18:51:24.776Z,68.40
2024-01-16T18:53:54.805Z,68.10
2024-01-16T18:56:24.252Z,68.30
2024-01-16T18:58:57.081Z,68.60
2024-01-16T19:01:30.962Z,68.30
2024-01-16T19:04:02.994Z,68.60
2024-01-16T19:06:32.286Z,68.70
2024-01-16T19:09:01.861Z,68.60
2024-01-16T19:11:31.084Z,69.20
2024-01-16T19:14:00.200Z,68.90
2024-01-16T19:16:29.437Z,69.50
2024-01-16T19:18:59.723Z,68.60
2024-01-16T19:21:29.094Z,69.00
2024-01-16T19:23:58.309Z,68.80
2024-01-16T19:26:27.490Z,68.80
2024-01-16T19:28:56.753Z,69.20
2024-01-16T19:31:25.848Z,69.60
2024-01-16T19:33:55.088Z,70.10
2024-01-16T19:36:24.293Z,69.40
2024-01-16T19:38:53.538Z,69.40
2024-01-16T19:41:23.006Z,69.30
2024-01-16T19:43:52.197Z,69.10
2024-01-16T19:46:21.456Z,69.30
2024-01-16T19:48:50.730Z,69.50
2024-01-16T19:51:19.881Z,69.90
2024-01-16T19:53:49.043Z,70.00
2024-01-16T19:56:18.297Z,69.80
2024-01-16T19:58:49.710Z,70.00
2024-01-16T20:01:19.186Z,69.60
2024-01-16T20:03:48.524Z,70.10
2024-01-16T20:06:17.749Z,70.10
2024-01-16T20:08:51.778Z,70.20
2024-01-16T20:11:34.731Z,70.20
2024-01-16T20:14:04.209Z,70.30
2024-01-16T20:16:33.498Z,70.30
2024-01-16T20:19:02.911Z,70.30
2024-01-16T20:21:32.581Z,70.50
2024-01-16T20:24:03.489Z,70.50
2024-01-16T20:26:32.720Z,70.60
2024-01-16T20:29:01.980Z,70.90
2024-01-16T20:31:31.470Z,70.70
2024-01-16T20:34:00.841Z,70.90
2024-01-16T20:36:30.208Z,71.00
2024-01-16T20:38:59.446Z,70.80
2024-01-16T20:41:28.674Z,71.00
2024-01-16T20:43:57.876Z,71.30
2024-01-16T20:46:30.100Z,71.30
2024-01-16T20:48:59.337Z,71.50
2024-01-16T20:51:31.035Z,71.40
2024-01-16T20:54:00.347Z,71.40
2024-01-16T20:56:29.543Z,71.70
2024-01-16T20:58:58.639Z,71.50
2024-01-16T21:02:22.861Z,71.60
2024-01-16T21:04:52.286Z,72.20
2024-01-16T21:07:24.503Z,72.00
2024-01-16T21:09:53.650Z,72.70
2024-01-16T21:12:24.093Z,72.00
2024-01-16T21:14:53.263Z,72.20
2024-01-16T21:17:22.552Z,72.20
2024-01-16T21:19:52.121Z,72.20
2024-01-16T21:22:30.723Z,72.30
2024-01-16T21:25:07.093Z,72.40
2024-01-16T21:27:39.381Z,72.60
2024-01-16T21:30:10.372Z,72.50
2024-01-16T21:32:39.765Z,72.60
2024-01-16T21:35:09.400Z,72.70
2024-01-16T21:37:39.384Z,72.90
2024-01-16T21:40:13.494Z,72.90
2024-01-16T21:42:42.311Z,72.80
2024-01-16T21:45:11.800Z,75.40
2024-01-16T21:47:41.030Z,73.60
2024-01-16T21:50:13.090Z,73.30
2024-01-16T21:52:42.599Z,73.30
2024-01-16T21:55:11.907Z,73.90
2024-01-16T21:57:42.596Z,73.60
2024-01-16T22:00:14.226Z,73.70
2024-01-16T22:02:43.399Z,73.80
2024-01-16T22:05:15.326Z,73.70
2024-01-16T22:07:44.541Z,73.90
2024-01-16T22:10:13.647Z,73.90
2024-01-16T22:12:42.915Z,74.00
2024-01-16T22:15:14.065Z,74.10
2024-01-16T22:17:44.866Z,74.10
2024-01-16T22:20:14.669Z,74.40
2024-01-16T22:22:43.878Z,74.50
2024-01-16T22:25:13.063Z,74.30
2024-01-16T22:27:42.354Z,74.40
2024-01-16T22:30:14.365Z,74.70
2024-01-16T22:32:43.776Z,74.70
2024-01-16T22:35:13.349Z,74.90
2024-01-16T22:37:47.797Z,75.00
2024-01-16T22:40:18.621Z,75.00
2024-01-16T22:42:47.712Z,75.10
2024-01-16T22:45:18.652Z,75.10
2024-01-16T22:47:47.945Z,75.00
2024-01-16T22:50:17.228Z,75.10
2024-01-16T22:52:46.449Z,75.30
2024-01-16T22:55:15.559Z,75.60
2024-01-16T22:57:44.639Z,75.90
2024-01-16T23:00:22.887Z,75.70
2024-01-16T23:02:52.720Z,75.70
2024-01-16T23:05:28.251Z,76.00
2024-01-16T23:07:58.885Z,76.00
2024-01-16T23:10:28.133Z,76.20
2024-01-16T23:12:57.571Z,76.50
2024-01-16T23:15:26.662Z,76.70
2024-01-16T23:17:56.023Z,76.60
2024-01-16T23:20:26.101Z,76.90
2024-01-16T23:22:57.088Z,77.10
2024-01-16T23:25:26.267Z,77.10
2024-01-16T23:27:55.484Z,77.40
2024-01-16T23:30:24.706Z,77.50
2024-01-16T23:32:53.936Z,77.70
2024-01-16T23:35:23.226Z,78.00
2024-01-16T23:37:53.783Z,78.20
2024-01-16T23:40:22.983Z,78.20
2024-01-16T23:42:52.052Z,78.50
2024-01-16T23:45:27.761Z,78.50
2024-01-16T23:48:02.379Z,78.60
2024-01-16T23:50:31.649Z,78.70
2024-01-16T23:53:01.422Z,78.90
2024-01-16T23:55:30.464Z,79.10
2024-01-16T23:58:00.297Z,79.20
